Time;durP1;ratioP1;P1;durP2;ratioP2;P2;SDS_P1;SDS_P2;PMS_P1;PMS_P2;Temp;Humidity;BMP_temperature;BMP_pressure;BME280_temperature;BME280_humidity;BME280_pressure;Samples;Min_cycle;Max_cycle;Signal;HPM_P1;HPM_P2
2022/04/15 00:01:08;;;;;;;21.83;1.87;;;;;;;20.85;47.33;99860.13;7314854;19;158188;-36
2022/04/15 00:03:34;;;;;;;10.50;0.93;;;;;;;20.86;48.46;99869.59;7314792;19;158562;-39
2022/04/15 00:06:00;;;;;;;17.50;1.33;;;;;;;20.89;48.58;99871.13;7317143;19;129038;-33
2022/04/15 00:08:25;;;;;;;32.65;2.40;;;;;;;20.94;48.63;99859.31;7316549;19;129134;-33
2022/04/15 00:10:50;;;;;;;6.87;0.63;;;;;;;20.90;49.20;99844.88;7315044;19;158332;-34
2022/04/15 00:13:24;;;;;;;29.75;2.53;;;;;;;20.98;49.97;99849.47;7313835;19;129503;-32
2022/04/15 00:15:50;;;;;;;11.07;1.05;;;;;;;20.99;50.38;99846.72;7316607;19;128864;-35
2022/04/15 00:18:15;;;;;;;28.27;2.37;;;;;;;21.01;50.44;99857.88;7316586;19;129522;-33
2022/04/15 00:20:41;;;;;;;18.98;1.63;;;;;;;21.02;50.40;99849.09;7313691;19;129588;-33
2022/04/15 00:23:06;;;;;;;19.75;1.67;;;;;;;21.03;50.91;99845.53;7314989;19;158516;-36
2022/04/15 00:25:31;;;;;;;26.83;2.22;;;;;;;21.02;50.48;99833.44;7313230;19;153812;-30
2022/04/15 00:27:56;;;;;;;36.83;3.35;;;;;;;20.93;50.77;99826.31;7313785;19;153865;-37
2022/04/15 00:30:22;;;;;;;17.52;1.48;;;;;;;20.73;47.96;99845.44;7313404;19;130150;-41
2022/04/15 00:32:47;;;;;;;19.77;1.73;;;;;;;20.56;47.67;99844.25;7316672;19;130294;-38
2022/04/15 00:35:12;;;;;;;27.30;2.25;;;;;;;20.52;47.50;99842.00;7314797;19;155129;-39
2022/04/15 00:37:38;;;;;;;22.33;1.85;;;;;;;20.57;47.73;99847.69;7314698;19;154216;-42
2022/04/15 00:40:06;;;;;;;15.27;1.30;;;;;;;20.44;47.34;99823.53;7314666;19;129958;-40
2022/04/15 00:42:31;;;;;;;26.70;2.17;;;;;;;20.54;47.53;99842.72;7314623;19;131107;-40
2022/04/15 00:44:57;;;;;;;6.68;0.68;;;;;;;20.55;46.91;99841.75;7314397;19;133053;-40
2022/04/15 00:47:38;;;;;;;21.53;1.77;;;;;;;20.57;47.16;99847.69;7314849;19;129343;-42
2022/04/15 00:50:04;;;;;;;18.40;1.48;;;;;;;20.55;46.85;99847.81;7314010;19;130133;-40
2022/04/15 00:52:38;;;;;;;7.40;0.80;;;;;;;20.57;47.07;99852.91;7316487;19;132032;-41
2022/04/15 00:55:04;;;;;;;20.95;1.65;;;;;;;20.57;46.87;99855.53;7315510;19;129890;-39
2022/04/15 00:57:33;;;;;;;33.42;2.75;;;;;;;20.61;47.19;99857.75;7313644;19;129218;-40
2022/04/15 01:00:01;;;;;;;24.77;2.22;;;;;;;20.63;46.60;99850.63;7313208;19;130280;-39
2022/04/15 01:02:28;;;;;;;18.05;1.42;;;;;;;20.64;46.45;99854.06;7315339;19;129612;-41
2022/04/15 01:04:55;;;;;;;18.50;1.40;;;;;;;20.89;47.34;99864.09;7314114;19;129147;-38
2022/04/15 01:07:25;;;;;;;16.38;1.58;;;;;;;20.90;48.93;99857.09;7315498;19;129251;-38
2022/04/15 01:09:51;;;;;;;31.63;2.78;;;;;;;20.93;49.05;99862.06;7311988;19;131704;-40
2022/04/15 01:12:22;;;;;;;29.95;2.50;;;;;;;20.95;49.73;99861.00;7314376;19;129368;-41
2022/04/15 01:14:48;;;;;;;17.45;1.52;;;;;;;20.96;49.60;99865.25;7314578;19;129296;-40
2022/04/15 01:17:13;;;;;;;22.70;1.98;;;;;;;21.00;49.53;99874.53;7314639;19;128901;-40
2022/04/15 01:19:39;;;;;;;12.07;1.25;;;;;;;21.04;49.82;99875.91;7312310;19;130094;-40
2022/04/15 01:22:11;;;;;;;23.60;1.98;;;;;;;21.06;50.41;99879.25;7314260;19;129806;-40
2022/04/15 01:24:38;;;;;;;18.95;1.55;;;;;;;21.04;49.70;99867.28;7314424;19;128701;-40
2022/04/15 01:27:04;;;;;;;24.30;2.13;;;;;;;20.98;50.15;99860.75;7313809;19;130369;-39
2022/04/15 01:29:36;;;;;;;8.77;0.77;;;;;;;21.02;50.30;99866.56;7313235;19;129416;-39
2022/04/15 01:32:03;;;;;;;17.42;1.42;;;;;;;20.92;49.26;99853.41;7314414;19;130755;-40
2022/04/15 01:34:29;;;;;;;19.67;1.63;;;;;;;20.62;47.87;99863.81;7314635;19;129311;-38
2022/04/15 01:36:54;;;;;;;16.90;1.45;;;;;;;20.50;47.94;99859.59;7313696;19;128931;-38
2022/04/15 01:39:20;;;;;;;20.33;1.73;;;;;;;20.53;47.41;99854.09;7313874;19;129484;-39
2022/04/15 01:41:45;;;;;;;19.00;1.97;;;;;;;20.44;47.63;99839.22;7311251;19;158725;-40
2022/04/15 01:44:15;;;;;;;27.50;2.23;;;;;;;20.56;47.31;99859.09;7312624;19;154781;-39
2022/04/15 01:46:42;;;;;;;20.73;1.65;;;;;;;20.55;46.98;99862.66;7314456;19;129138;-41
2022/04/15 01:49:07;;;;;;;26.77;2.38;;;;;;;20.62;47.42;99858.59;7313807;19;130514;-38
2022/04/15 01:51:36;;;;;;;17.85;1.40;;;;;;;20.58;46.81;99849.34;7312882;19;159143;-34
2022/04/15 01:54:03;;;;;;;8.63;0.68;;;;;;;20.60;46.93;99855.25;7311812;19;128895;-33
2022/04/15 01:56:28;;;;;;;;;;;;;;;20.59;47.23;99854.44;7313305;19;128822;-36
2022/04/15 01:58:53;;;;;;;16.73;1.43;;;;;;;20.61;47.30;99852.53;7311278;19;158385;-33
2022/04/15 02:01:18;;;;;;;26.33;2.25;;;;;;;20.62;47.26;99855.97;7311332;19;158381;-36
2022/04/15 02:03:44;;;;;;;27.33;2.28;;;;;;;20.62;46.58;99854.19;7312598;19;147529;-34
2022/04/15 02:06:09;;;;;;;17.88;1.63;;;;;;;20.84;46.79;99852.41;7311521;19;154142;-37
2022/04/15 02:08:34;;;;;;;20.00;1.60;;;;;;;20.89;48.06;99845.00;7310555;19;159017;-34
2022/04/15 02:10:59;;;;;;;26.77;2.25;;;;;;;20.90;48.41;99847.50;7311245;19;158453;-35
2022/04/15 02:13:25;;;;;;;17.25;1.30;;;;;;;20.94;49.07;99842.84;7312843;19;129542;-35
2022/04/15 02:15:50;;;;;;;15.32;1.40;;;;;;;20.87;49.60;99826.84;7312618;19;154833;-36
2022/04/15 02:18:15;;;;;;;22.27;2.20;;;;;;;21.02;49.39;99849.09;7311751;19;158666;-41
2022/04/15 02:20:40;;;;;;;21.55;1.83;;;;;;;21.03;49.77;99847.31;7308139;19;159293;-34
2022/04/15 02:23:06;;;;;;;25.60;2.03;;;;;;;20.96;50.51;99825.25;7312039;19;145134;-35
2022/04/15 02:25:31;;;;;;;24.08;2.10;;;;;;;21.07;50.71;99848.72;7310220;19;128555;-33
2022/04/15 02:27:56;;;;;;;20.55;1.67;;;;;;;21.05;50.63;99846.22;7312930;19;129546;-36
2022/04/15 02:30:22;;;;;;;21.40;1.77;;;;;;;21.06;50.50;99847.88;7307576;19;158568;-39
2022/04/15 02:32:47;;;;;;;28.57;2.53;;;;;;;21.06;50.07;99847.88;7311756;19;154051;-35
2022/04/15 02:35:12;;;;;;;20.98;1.85;;;;;;;20.88;48.25;99848.56;7311658;19;147188;-44
2022/04/15 02:37:39;;;;;;;22.02;1.80;;;;;;;20.62;47.52;99853.34;7311029;19;158471;-35
2022/04/15 02:40:06;;;;;;;21.67;1.75;;;;;;;20.58;47.75;99844.09;7309239;19;130180;-37
2022/04/15 02:42:32;;;;;;;;;;;;;;;20.55;47.40;99852.19;7314447;19;129665;-32
2022/04/15 02:44:57;;;;;;;16.13;1.17;;;;;;;20.58;46.97;99841.50;7311566;19;129578;-39
2022/04/15 02:47:22;;;;;;;18.90;1.63;;;;;;;20.54;47.57;99838.31;7310528;19;159168;-41
2022/04/15 02:49:47;;;;;;;22.23;1.85;;;;;;;20.54;47.50;99837.50;7310000;19;139819;-32
2022/04/15 02:52:13;;;;;;;22.27;1.83;;;;;;;20.49;47.80;99827.41;7312931;19;130166;-34
2022/04/15 02:54:38;;;;;;;19.80;1.63;;;;;;;20.60;47.00;99839.59;7311665;19;154005;-35
2022/04/15 02:57:04;;;;;;;2.10;0.33;;;;;;;20.59;46.70;99843.16;7310226;19;157429;-41
2022/04/15 02:59:29;;;;;;;19.92;1.63;;;;;;;20.59;46.70;99845.78;7310649;19;130401;-43
2022/04/15 03:01:55;;;;;;;38.08;2.90;;;;;;;20.63;46.95;99839.31;7312216;19;129060;-40
2022/04/15 03:04:20;;;;;;;18.52;1.50;;;;;;;20.64;46.59;99835.78;7311153;19;149290;-33
2022/04/15 03:06:45;;;;;;;21.83;1.70;;;;;;;20.69;46.80;99838.84;7315683;19;159253;-36
2022/04/15 03:09:11;;;;;;;25.80;2.13;;;;;;;20.90;47.59;99838.81;7316629;19;158663;-34
2022/04/15 03:11:38;;;;;;;15.18;1.30;;;;;;;20.90;48.15;99847.50;7319438;19;128965;-30
2022/04/15 03:14:04;;;;;;;17.38;1.23;;;;;;;20.93;48.57;99847.22;7318311;19;129010;-43
2022/04/15 03:16:29;;;;;;;19.90;1.63;;;;;;;20.94;49.42;99843.63;7317225;19;130773;-34
2022/04/15 03:18:55;;;;;;;18.92;1.48;;;;;;;21.00;48.89;99843.19;7316850;19;141019;-32
2022/04/15 03:21:20;;;;;;;19.63;1.63;;;;;;;20.99;49.54;99846.72;7318155;19;129037;-36
2022/04/15 03:23:46;;;;;;;24.43;2.10;;;;;;;20.92;49.19;99829.06;7316847;19;154056;-38
2022/04/15 03:26:11;;;;;;;23.23;2.03;;;;;;;21.02;49.27;99851.72;7315836;19;136220;-33
2022/04/15 03:28:37;;;;;;;22.10;1.90;;;;;;;21.04;49.53;99844.56;7316287;19;158524;-36
2022/04/15 03:31:03;;;;;;;7.13;0.68;;;;;;;21.04;50.06;99849.78;7317618;19;129766;-37
2022/04/15 03:33:28;;;;;;;19.05;1.63;;;;;;;21.05;50.90;99845.41;7318428;19;129005;-32
2022/04/15 03:35:53;;;;;;;22.30;1.73;;;;;;;21.06;49.44;99850.50;7317383;19;130191;-40
2022/04/15 03:38:19;;;;;;;22.20;2.05;;;;;;;20.85;48.14;99854.88;7315844;19;159440;-36
2022/04/15 03:40:44;;;;;;;23.45;1.92;;;;;;;20.60;47.53;99845.66;7313124;19;154512;-33
2022/04/15 03:43:09;;;;;;;22.67;1.83;;;;;;;20.55;47.69;99846.97;7316512;19;154302;-36
2022/04/15 03:45:35;;;;;;;25.15;2.33;;;;;;;20.49;47.46;99847.50;7314743;19;131139;-41
2022/04/15 03:48:00;;;;;;;19.20;1.42;;;;;;;20.44;47.53;99829.56;7317976;19;129330;-36
2022/04/15 03:50:26;;;;;;;17.10;1.38;;;;;;;20.54;47.40;99840.91;7313482;19;153295;-33
2022/04/15 03:52:51;;;;;;;16.85;1.30;;;;;;;20.55;47.14;99841.75;7316833;19;129440;-35
2022/04/15 03:55:19;;;;;;;27.33;2.30;;;;;;;20.57;47.27;99845.91;7317210;19;130233;-35
2022/04/15 03:57:46;;;;;;;21.65;1.85;;;;;;;20.52;47.25;99834.19;7316965;19;129776;-37
2022/04/15 04:00:15;;;;;;;21.25;1.75;;;;;;;20.60;47.08;99850.03;7315394;19;129505;-37
2022/04/15 04:02:42;;;;;;;7.93;0.88;;;;;;;20.61;47.13;99841.22;7317771;19;129174;-30
2022/04/15 04:05:08;;;;;;;23.38;1.92;;;;;;;20.51;47.16;99830.72;7317019;19;130142;-37
2022/04/15 04:07:33;;;;;;;16.70;1.38;;;;;;;20.62;47.14;99837.69;7316458;19;130689;-39
2022/04/15 04:09:59;;;;;;;17.67;1.37;;;;;;;20.83;47.95;99835.88;7313204;19;154747;-32
2022/04/15 04:12:24;;;;;;;30.83;2.35;;;;;;;20.92;49.08;99850.81;7315192;19;153789;-36
2022/04/15 04:14:49;;;;;;;22.65;1.95;;;;;;;20.95;48.90;99847.94;7316626;19;133802;-35
2022/04/15 04:17:15;;;;;;;16.73;1.45;;;;;;;20.98;49.68;99845.09;7312822;19;159284;-38
2022/04/15 04:19:40;;;;;;;25.95;2.20;;;;;;;21.01;49.03;99839.59;7313180;19;144873;-36
2022/04/15 04:22:05;;;;;;;19.48;1.60;;;;;;;21.02;49.55;99849.09;7315188;19;154006;-40
2022/04/15 04:24:31;;;;;;;18.52;1.50;;;;;;;21.04;49.63;99846.38;7315685;19;129110;-33
2022/04/15 04:26:56;;;;;;;15.65;1.33;;;;;;;21.05;49.29;99851.47;7315890;19;129613;-31
2022/04/15 04:29:21;;;;;;;23.43;2.03;;;;;;;21.07;49.65;99853.94;7312569;19;154926;-38
2022/04/15 04:31:46;;;;;;;23.15;2.15;;;;;;;20.99;50.50;99838.09;7314996;19;154973;-33
2022/04/15 04:34:12;;;;;;;31.60;2.47;;;;;;;21.08;50.32;99855.59;7314770;19;158511;-38
2022/04/15 04:36:37;;;;;;;22.67;1.95;;;;;;;21.06;50.04;99868.78;7313663;19;158468;-36
2022/04/15 04:39:06;;;;;;;17.10;1.40;;;;;;;20.68;47.81;99858.06;7315690;19;129208;-28
2022/04/15 04:41:32;;;;;;;16.58;1.30;;;;;;;20.57;48.12;99860.75;7315453;19;128859;-37
2022/04/15 04:43:57;;;;;;;19.25;1.52;;;;;;;20.54;47.62;99863.63;7316083;19;129116;-34
2022/04/15 04:46:22;;;;;;;18.60;1.67;;;;;;;20.51;47.62;99872.53;7310563;19;159186;-34
2022/04/15 04:48:47;;;;;;;22.33;1.90;;;;;;;20.53;47.12;99864.56;7314508;19;155371;-33
2022/04/15 04:51:13;;;;;;;23.98;2.13;;;;;;;20.55;47.58;99873.09;7313094;19;154217;-38
2022/04/15 04:53:38;;;;;;;23.38;1.95;;;;;;;20.56;47.15;99869.56;7314224;19;159105;-40
2022/04/15 04:56:03;;;;;;;17.50;1.50;;;;;;;20.60;47.11;99881.38;7313641;19;158481;-43
2022/04/15 04:58:29;;;;;;;18.00;1.40;;;;;;;20.58;47.64;99878.06;7316381;19;129077;-38
2022/04/15 05:00:54;;;;;;;12.93;1.30;;;;;;;20.60;46.80;99881.38;7313594;19;152959;-38
2022/04/15 05:03:19;;;;;;;23.03;2.00;;;;;;;20.60;46.66;99887.44;7313115;19;158293;-36
2022/04/15 05:05:44;;;;;;;22.57;1.97;;;;;;;20.63;46.60;99883.75;7311916;19;159165;-41
2022/04/15 05:08:09;;;;;;;24.87;2.00;;;;;;;20.64;46.65;99888.03;7313514;19;154244;-33
2022/04/15 05:10:35;;;;;;;18.13;1.57;;;;;;;20.69;47.49;99891.91;7311695;19;152660;-35
2022/04/15 05:13:00;;;;;;;23.17;1.93;;;;;;;20.88;47.72;99899.06;7314237;19;154868;-33
2022/04/15 05:15:25;;;;;;;25.73;2.47;;;;;;;20.90;48.99;99898.91;7313066;19;159113;-29
2022/04/15 05:17:50;;;;;;;19.73;1.60;;;;;;;20.85;49.59;99888.03;7314041;19;153503;-40
2022/04/15 05:20:16;;;;;;;28.67;2.47;;;;;;;20.94;48.84;99895.91;7310795;19;154319;-34
2022/04/15 05:22:41;;;;;;;28.08;2.28;;;;;;;21.01;49.53;99907.56;7313920;19;151625;-39
2022/04/15 05:25:07;;;;;;;22.25;1.88;;;;;;;21.02;50.18;99911.84;7313276;19;142233;-32
2022/04/15 05:27:32;;;;;;;17.38;1.48;;;;;;;21.04;49.34;99909.09;7314455;19;129886;-34
2022/04/15 05:29:57;;;;;;;22.67;2.07;;;;;;;21.05;50.09;99911.59;7310375;19;153918;-35
2022/04/15 05:32:22;;;;;;;18.45;1.42;;;;;;;21.05;50.60;99924.66;7315245;19;129058;-34
2022/04/15 05:34:48;;;;;;;25.55;2.10;;;;;;;21.04;50.10;99922.97;7314413;19;131126;-33
2022/04/15 05:37:13;;;;;;;17.02;1.63;;;;;;;21.07;50.95;99927.13;7313044;19;152938;-37
2022/04/15 05:39:38;;;;;;;24.15;2.10;;;;;;;21.07;50.65;99935.81;7311538;19;153542;-33
2022/04/15 05:42:04;;;;;;;25.33;2.03;;;;;;;20.73;48.15;99934.28;7313684;19;151175;-43
2022/04/15 05:44:29;;;;;;;32.75;2.55;;;;;;;20.57;47.97;99934.72;7313794;19;129375;-38
2022/04/15 05:46:54;;;;;;;17.40;1.42;;;;;;;20.52;47.59;99941.25;7312924;19;155180;-32
2022/04/15 05:49:20;;;;;;;34.17;2.92;;;;;;;20.55;47.26;99941.00;7311952;19;155015;-38
2022/04/15 05:51:48;;;;;;;21.20;1.80;;;;;;;20.56;47.74;99940.06;7314658;19;128988;-34
2022/04/15 05:54:13;;;;;;;22.48;1.88;;;;;;;20.52;47.08;99951.72;7315074;19;130385;-37
2022/04/15 05:56:38;;;;;;;19.90;1.63;;;;;;;20.55;47.31;99948.84;7312818;19;154846;-36
2022/04/15 05:59:04;;;;;;;22.52;1.77;;;;;;;20.57;46.91;99946.94;7311887;19;153964;-41
2022/04/15 06:01:29;;;;;;;13.63;1.15;;;;;;;20.59;47.06;99956.31;7313275;19;130155;-33
2022/04/15 06:03:54;;;;;;;19.65;1.60;;;;;;;20.59;47.32;99964.13;7313539;19;129197;-36
2022/04/15 06:06:19;;;;;;;32.95;2.55;;;;;;;20.60;46.63;99965.81;7309000;19;154655;-33
2022/04/15 06:08:44;;;;;;;22.20;1.90;;;;;;;20.61;46.63;99966.63;7311607;19;154739;-40
2022/04/15 06:11:10;;;;;;;22.13;1.83;;;;;;;20.83;47.38;99970.94;7312122;19;158180;-38
2022/04/15 06:13:35;;;;;;;13.52;1.27;;;;;;;20.89;47.48;99971.25;7310785;19;158278;-36
2022/04/15 06:16:00;;;;;;;14.18;1.17;;;;;;;20.92;49.14;99976.25;7312727;19;128937;-41
2022/04/15 06:18:34;;;;;;;19.05;1.52;;;;;;;20.94;49.53;99984.78;7311884;19;139805;-40
2022/04/15 06:21:00;;;;;;;16.15;1.38;;;;;;;20.98;49.64;99986.22;7312911;19;130249;-36
2022/04/15 06:23:26;;;;;;;21.33;1.77;;;;;;;21.02;49.82;99992.88;7313488;19;130522;-38
2022/04/15 06:25:51;;;;;;;17.95;1.45;;;;;;;21.03;49.91;99997.13;7309982;19;129073;-40
2022/04/15 06:28:17;;;;;;;21.92;2.08;;;;;;;21.06;49.92;99999.50;7312637;19;130459;-38
2022/04/15 06:30:42;;;;;;;21.77;1.90;;;;;;;21.05;49.96;100000.47;7308844;19;129427;-40
2022/04/15 06:33:08;;;;;;;47.75;3.78;;;;;;;21.08;48.44;99997.59;7310468;19;138133;-40
2022/04/15 06:35:34;;;;;;;29.05;2.28;;;;;;;21.06;50.07;99996.03;7311047;19;129196;-38
2022/04/15 06:38:00;;;;;;;17.13;1.50;;;;;;;21.05;50.32;99997.84;7313750;19;129563;-38
2022/04/15 06:40:25;;;;;;;2.78;0.43;;;;;;;20.87;47.61;100001.94;7306657;19;158990;-38
2022/04/15 06:42:50;;;;;;;22.73;1.95;;;;;;;20.63;47.88;100006.53;7309130;19;158544;-40
2022/04/15 06:45:16;;;;;;;31.73;2.77;;;;;;;20.57;47.99;100012.25;7309335;19;155168;-38
2022/04/15 06:47:41;;;;;;;20.15;1.65;;;;;;;20.57;47.01;100007.84;7312917;19;129076;-40
2022/04/15 06:50:07;;;;;;;7.50;0.88;;;;;;;20.74;50.62;99998.66;7308267;19;159056;-40
2022/04/15 06:52:32;;;;;;;18.80;1.53;;;;;;;20.63;49.05;100016.97;7312671;19;130341;-39
2022/04/15 06:54:58;;;;;;;31.60;2.30;;;;;;;20.53;48.75;100016.03;7312346;19;130460;-38
2022/04/15 06:57:23;;;;;;;18.27;1.50;;;;;;;20.50;48.13;100009.28;7312196;19;129127;-38
2022/04/15 06:59:48;;;;;;;24.48;2.17;;;;;;;20.51;48.26;100017.97;7308913;19;159256;-42
2022/04/15 07:02:13;;;;;;;24.03;1.97;;;;;;;20.53;47.38;100016.03;7310323;19;158444;-39
2022/04/15 07:04:39;;;;;;;12.07;1.07;;;;;;;20.56;47.24;100021.03;7310747;19;154525;-41
2022/04/15 07:07:04;;;;;;;17.47;1.33;;;;;;;20.60;47.48;100022.44;7310247;19;154327;-36
2022/04/15 07:09:29;;;;;;;19.67;1.60;;;;;;;20.58;46.96;100021.72;7308225;19;158169;-39
2022/04/15 07:11:56;;;;;;;18.95;1.65;;;;;;;20.60;47.14;100017.22;7311190;19;130617;-38
2022/04/15 07:14:21;;;;;;;21.60;1.73;;;;;;;20.49;47.39;100004.19;7311574;19;129426;-37
2022/04/15 07:16:46;;;;;;;34.03;2.47;;;;;;;20.63;47.26;100032.66;7310682;19;129356;-38
2022/04/15 07:19:12;;;;;;;34.73;3.07;;;;;;;20.58;46.71;100014.72;7307998;19;159146;-39
2022/04/15 07:21:38;;;;;;;19.03;1.53;;;;;;;20.66;46.58;100029.78;7310436;19;159400;-37
2022/04/15 07:24:04;;;;;;;;;;;;;;;20.66;46.68;100029.78;7311487;19;129322;-39
2022/04/15 07:26:30;;;;;;;42.45;3.38;;;;;;;20.89;47.64;100028.75;7305690;19;128981;-39
2022/04/15 07:28:56;;;;;;;16.40;1.20;;;;;;;20.90;48.26;100033.03;7309971;19;129110;-36
2022/04/15 07:31:22;;;;;;;24.17;1.77;;;;;;;20.94;49.22;100038.84;7310413;19;129341;-40
2022/04/15 07:33:47;;;;;;;21.77;1.77;;;;;;;20.96;49.32;100035.16;7310692;19;129602;-36
2022/04/15 07:39:17;;;;;;;26.58;2.60;;;;;;;21.03;50.09;100049.41;7304801;19;129051;-38
2022/04/15 07:41:45;;;;;;;22.75;1.83;;;;;;;20.96;50.42;100035.16;7305190;19;159425;-39
2022/04/15 07:44:10;;;;;;;20.38;1.77;;;;;;;21.04;49.85;100043.22;7308717;19;129084;-38
2022/04/15 07:46:37;;;;;;;21.80;1.70;;;;;;;21.03;49.60;100040.75;7308155;19;129382;-38
2022/04/15 07:49:03;;;;;;;;;;;;;;;21.11;50.24;100054.84;7310414;19;129833;-38
2022/04/15 07:51:29;;;;;;;12.07;1.20;;;;;;;21.06;50.70;100054.38;7310471;19;131008;-41
2022/04/15 07:53:54;;;;;;;15.73;1.20;;;;;;;20.97;49.05;100052.53;7317367;19;129087;-37
2022/04/15 07:56:20;;;;;;;19.25;1.60;;;;;;;20.63;48.29;100059.59;7317022;19;129082;-40
2022/04/15 07:58:45;;;;;;;21.23;1.73;;;;;;;20.53;48.03;100056.06;7316579;19;158454;-40
2022/04/15 08:01:10;;;;;;;12.93;1.30;;;;;;;20.52;47.44;100061.41;7314887;19;158413;-38
2022/04/15 08:03:36;;;;;;;20.45;1.67;;;;;;;20.44;47.34;100046.31;7317348;19;129032;-41
2022/04/15 08:06:03;;;;;;;17.80;1.50;;;;;;;20.52;47.21;100062.25;7315767;19;128764;-39
2022/04/15 08:08:28;;;;;;;21.60;1.70;;;;;;;20.54;47.37;100055.09;7317472;19;130137;-39
2022/04/15 08:10:53;;;;;;;30.95;2.35;;;;;;;20.55;46.94;100066.38;7316595;19;130869;-41
2022/04/15 08:13:19;;;;;;;21.63;1.90;;;;;;;20.60;47.30;100067.69;7317405;19;134334;-40
2022/04/15 08:15:45;;;;;;;16.73;1.38;;;;;;;20.61;47.10;100071.13;7316767;19;129168;-40
2022/04/15 08:18:10;;;;;;;24.40;2.03;;;;;;;20.61;47.14;100071.94;7316153;19;130184;-40
2022/04/15 08:20:35;;;;;;;19.67;1.60;;;;;;;20.60;46.98;100066.84;7311897;19;158455;-38
2022/04/15 08:23:01;;;;;;;16.90;1.42;;;;;;;20.63;47.35;100074.44;7315497;19;155391;-37
2022/04/15 08:25:26;;;;;;;46.08;3.95;;;;;;;20.88;47.56;100074.16;7314525;19;129505;-40
2022/04/15 08:27:51;;;;;;;20.38;1.67;;;;;;;20.91;48.17;100079.13;7315447;19;129891;-38
2022/04/15 08:30:16;;;;;;;25.00;2.08;;;;;;;20.93;48.38;100087.69;7314111;19;129730;-39
2022/04/15 08:32:42;;;;;;;29.70;2.38;;;;;;;20.98;48.49;100084.72;7314459;19;154417;-41
2022/04/15 08:35:11;;;;;;;22.27;1.77;;;;;;;21.00;49.46;100098.50;7316389;19;128864;-38
2022/04/15 08:37:37;;;;;;;20.70;1.75;;;;;;;21.00;50.41;100083.66;7315698;19;130179;-37
2022/04/15 08:40:03;;;;;;;16.25;1.33;;;;;;;21.04;49.82;100095.50;7313380;19;130327;-41
2022/04/15 08:42:30;;;;;;;16.75;1.40;;;;;;;21.04;50.01;100095.50;7315704;19;128810;-40
2022/04/15 08:44:56;;;;;;;;;;;;;;;21.12;51.03;100098.31;7316593;19;129236;-39
2022/04/15 08:47:21;;;;;;;24.65;2.08;;;;;;;21.07;50.32;100099.66;7315856;19;130139;-37
2022/04/15 08:49:47;;;;;;;24.38;2.17;;;;;;;21.07;49.63;100107.50;7313660;19;129649;-37
2022/04/15 08:52:17;;;;;;;14.63;1.47;;;;;;;21.08;51.38;100109.16;7316966;19;130045;-38
2022/04/15 08:54:44;;;;;;;7.32;0.80;;;;;;;20.73;47.83;100114.56;7316045;19;128966;-40
2022/04/15 08:57:09;;;;;;;21.65;1.77;;;;;;;20.55;47.61;100110.78;7315470;19;129561;-38
2022/04/15 08:59:35;;;;;;;21.10;1.77;;;;;;;20.52;47.54;100109.25;7313679;19;129702;-41
2022/04/15 09:02:00;;;;;;;4.63;0.40;;;;;;;20.49;47.91;100106.06;7314156;19;154748;-38
2022/04/15 09:04:26;;;;;;;21.43;1.70;;;;;;;20.51;47.22;100117.22;7312476;19;153546;-40
2022/04/15 09:06:59;;;;;;;18.65;1.48;;;;;;;20.56;47.44;100112.47;7312379;19;130367;-40
2022/04/15 09:09:32;;;;;;;18.20;1.40;;;;;;;20.55;46.83;100124.69;7313555;19;131402;-38
2022/04/15 09:12:04;;;;;;;21.13;1.63;;;;;;;20.62;47.09;100130.25;7315652;19;129046;-39
2022/04/15 09:14:29;;;;;;;6.80;0.55;;;;;;;20.58;46.75;100128.84;7316197;19;128984;-38
2022/04/15 09:16:55;;;;;;;18.90;1.55;;;;;;;20.60;47.36;100122.56;7313642;19;129966;-38
2022/04/15 09:19:20;;;;;;;20.42;1.67;;;;;;;20.65;46.70;100135.25;7311780;19;159920;-39
2022/04/15 09:21:54;;;;;;;22.92;1.90;;;;;;;20.83;48.74;100128.56;7313381;19;154489;-38
2022/04/15 09:24:33;;;;;;;20.52;1.73;;;;;;;20.89;49.63;100129.88;7315571;19;129727;-38
2022/04/15 09:27:06;;;;;;;22.45;1.65;;;;;;;20.91;49.91;100131.41;7311429;19;130603;-39
2022/04/15 09:29:34;;;;;;;24.27;2.00;;;;;;;20.94;48.87;100133.75;7313377;19;129445;-42
2022/04/15 09:32:05;;;;;;;21.40;1.73;;;;;;;20.89;49.88;100116.81;7315420;19;129216;-40
2022/04/15 09:34:30;;;;;;;17.85;1.35;;;;;;;21.00;49.90;100133.31;7314673;19;129046;-38
2022/04/15 09:36:57;;;;;;;18.75;1.52;;;;;;;21.01;50.07;100142.81;7313684;19;131708;-38
2022/04/15 09:39:22;;;;;;;19.90;1.67;;;;;;;21.02;50.57;100139.25;7312533;19;130376;-37
2022/04/15 09:41:52;;;;;;;23.93;2.03;;;;;;;20.97;50.72;100125.72;7312622;19;154399;-37
2022/04/15 09:44:20;;;;;;;25.90;2.03;;;;;;;21.07;50.72;100133.66;7314107;19;129410;-38
2022/04/15 09:46:46;;;;;;;20.25;1.83;;;;;;;21.06;49.81;100139.81;7311760;19;129528;-41
2022/04/15 09:49:12;;;;;;;23.92;1.98;;;;;;;21.05;50.65;100144.25;7312702;19;130446;-39
2022/04/15 09:51:48;;;;;;;21.50;1.73;;;;;;;20.84;48.22;100140.66;7315175;19;128686;-38
2022/04/15 09:54:22;;;;;;;24.83;1.90;;;;;;;20.49;47.93;100119.13;7314614;19;130667;-41
2022/04/15 09:56:48;;;;;;;19.33;1.80;;;;;;;20.52;47.47;100145.00;7312894;19;130180;-37
2022/04/15 09:59:15;;;;;;;33.13;2.58;;;;;;;20.55;47.23;100144.75;7313216;19;130277;-38
2022/04/15 10:01:41;;;;;;;;;;;;;;;20.56;47.32;100151.66;7314452;19;128749;-41
2022/04/15 10:04:08;;;;;;;19.48;1.48;;;;;;;20.53;47.01;100157.94;7314329;19;129396;-39
2022/04/15 10:06:35;;;;;;;2.53;0.35;;;;;;;20.55;47.60;100150.81;7311084;19;129690;-41
2022/04/15 10:09:02;;;;;;;30.65;2.60;;;;;;;20.58;47.41;100154.94;7312079;19;129606;-37
2022/04/15 10:11:31;;;;;;;14.65;1.17;;;;;;;20.60;46.82;100153.06;7312840;19;128914;-38
2022/04/15 10:13:58;;;;;;;18.92;1.60;;;;;;;20.60;47.38;100155.66;7313462;19;128860;-38
2022/04/15 10:16:24;;;;;;;18.27;1.45;;;;;;;20.58;46.70;100154.94;7310302;19;129166;-39
2022/04/15 10:18:50;;;;;;;29.73;2.53;;;;;;;20.61;46.63;100152.09;7312332;19;130454;-37
2022/04/15 10:21:16;;;;;;;22.63;1.97;;;;;;;20.86;47.68;100154.44;7313273;19;128953;-40
2022/04/15 10:23:42;;;;;;;24.48;2.17;;;;;;;20.89;48.79;100158.63;7313061;19;128905;-40
2022/04/15 10:26:08;;;;;;;18.10;1.42;;;;;;;20.92;49.10;100153.97;7311753;19;129564;-40
2022/04/15 10:28:47;;;;;;;20.65;1.52;;;;;;;20.95;50.09;100153.72;7312699;19;129114;-38
2022/04/15 10:31:16;;;;;;;11.38;1.05;;;;;;;21.01;49.76;100157.66;7314161;19;129452;-39
2022/04/15 10:33:43;;;;;;;19.63;1.55;;;;;;;21.00;49.99;100151.63;7312852;19;128974;-36
2022/04/15 10:36:14;;;;;;;18.80;1.70;;;;;;;21.04;50.30;100154.81;7312507;19;131165;-39
2022/04/15 10:39:01;;;;;;;21.05;1.73;;;;;;;21.06;51.06;100163.34;7312306;19;129774;-40
2022/04/15 10:41:27;;;;;;;16.77;1.33;;;;;;;21.03;50.51;100159.22;7312528;19;129156;-38
2022/04/15 10:43:57;;;;;;;18.38;1.45;;;;;;;21.03;50.98;100153.13;7312361;19;129025;-39
2022/04/15 10:46:30;;;;;;;8.98;0.85;;;;;;;21.02;50.48;100154.94;7310549;19;130811;-38
2022/04/15 10:49:00;;;;;;;31.33;2.72;;;;;;;21.02;49.63;100154.09;7310734;19;129605;-40
2022/04/15 10:51:29;;;;;;;7.13;0.70;;;;;;;20.62;47.91;100157.22;7312473;19;129443;-38
2022/04/15 10:53:55;;;;;;;15.60;1.33;;;;;;;20.57;47.56;100158.53;7312038;19;128974;-38
2022/04/15 10:56:22;;;;;;;25.27;2.25;;;;;;;20.54;47.40;100159.59;7310796;19;129740;-40
2022/04/15 11:01:49;;;;;;;21.02;1.73;;;;;;;20.54;47.45;100164.81;7312629;19;129056;-38
2022/04/15 11:04:22;;;;;;;28.15;2.17;;;;;;;20.56;46.97;100162.09;7311844;19;128996;-37
2022/04/15 11:06:48;;;;;;;23.55;1.92;;;;;;;20.57;46.97;100161.13;7310076;19;130691;-39
2022/04/15 11:09:14;;;;;;;25.23;2.15;;;;;;;20.55;46.77;100157.81;7310449;19;130804;-40
2022/04/15 11:11:41;;;;;;;;;;;;;;;20.56;47.07;100167.31;7312653;19;130009;-36
2022/04/15 11:14:08;;;;;;;19.42;1.55;;;;;;;20.60;47.27;100169.56;7312497;19;129453;-40
2022/04/15 11:16:53;;;;;;;17.65;1.48;;;;;;;20.61;46.70;100170.38;7310324;19;131028;-38
2022/04/15 11:19:23;;;;;;;8.90;1.08;;;;;;;20.81;47.57;100163.63;7309851;19;130521;-36